Time;durP1;ratioP1;P1;durP2;ratioP2;P2;SDS_P1;SDS_P2;PMS_P1;PMS_P2;Temp;Humidity;BMP_temperature;BMP_pressure;BME280_temperature;BME280_humidity;BME280_pressure;Samples;Min_cycle;Max_cycle;Signal;HPM_P1;HPM_P2
2022/07/07 00:25:53;;;;;;;1.70;1.60;;;17.40;58.20;;;;;;7382752;19;20395;-80
2022/07/07 00:28:43;;;;;;;2.40;1.93;;;17.40;58.50;;;;;;7379189;19;20420;-83
2022/07/07 00:31:12;;;;;;;2.10;1.90;;;17.60;58.10;;;;;;7381280;19;20446;-80
2022/07/07 00:33:42;;;;;;;4.23;2.40;;;17.70;57.50;;;;;;7387029;19;20983;-81
2022/07/07 00:36:11;;;;;;;3.53;2.10;;;17.80;57.40;;;;;;7381024;19;20403;-81
2022/07/07 00:38:41;;;;;;;2.30;2.03;;;17.80;57.30;;;;;;7384334;19;20408;-82
2022/07/07 00:41:15;;;;;;;2.10;1.90;;;17.70;57.80;;;;;;7386127;19;20408;-82
2022/07/07 00:43:47;;;;;;;2.87;1.70;;;17.70;57.80;;;;;;7386806;19;20483;-81
2022/07/07 00:46:20;;;;;;;2.70;2.00;;;17.60;57.90;;;;;;7384842;19;20396;-80
2022/07/07 00:48:49;;;;;;;4.00;2.10;;;17.80;57.80;;;;;;7389463;19;20393;-82
2022/07/07 00:51:19;;;;;;;4.37;2.40;;;17.80;57.20;;;;;;7387727;19;20408;-81
2022/07/07 00:53:48;;;;;;;2.83;2.17;;;17.90;57.30;;;;;;7390660;19;20401;-82
2022/07/07 00:56:20;;;;;;;4.53;2.50;;;17.80;57.10;;;;;;7391475;19;20994;-82
2022/07/07 00:58:50;;;;;;;6.93;3.43;;;17.80;57.30;;;;;;7396460;19;20423;-81
2022/07/07 01:01:19;;;;;;;2.30;2.10;;;17.80;57.60;;;;;;7392199;19;20410;-79
2022/07/07 01:03:51;;;;;;;4.27;1.77;;;17.70;57.70;;;;;;7387183;19;20424;-79
2022/07/07 01:06:21;;;;;;;2.97;2.33;;;17.80;57.70;;;;;;7385963;19;20982;-79
2022/07/07 01:08:50;;;;;;;3.57;2.20;;;17.80;57.50;;;;;;7388403;19;20404;-81
2022/07/07 01:11:22;;;;;;;3.33;2.27;;;17.90;57.40;;;;;;7381937;19;20423;-81
2022/07/07 01:13:52;;;;;;;4.27;2.63;;;18.10;57.10;;;;;;7388961;19;22892;-80
2022/07/07 01:16:21;;;;;;;3.90;2.60;;;18.10;56.80;;;;;;7380438;19;20405;-80
2022/07/07 01:18:51;;;;;;;3.63;2.90;;;18.10;57.00;;;;;;7376444;19;20438;-79
2022/07/07 01:21:23;;;;;;;3.53;2.40;;;18.00;57.00;;;;;;7379926;19;20985;-77
2022/07/07 01:23:55;;;;;;;2.20;2.00;;;17.80;57.90;;;;;;7404614;19;20435;-79
2022/07/07 01:26:24;;;;;;;2.50;1.87;;;17.90;57.70;;;;;;7405812;19;20440;-79
2022/07/07 01:28:54;;;;;;;2.53;2.03;;;18.00;57.40;;;;;;7410651;19;20448;-83
2022/07/07 01:31:24;;;;;;;2.47;2.23;;;18.00;57.20;;;;;;7414388;19;20766;-81
2022/07/07 01:33:58;;;;;;;4.10;2.70;;;18.20;57.10;;;;;;7417069;19;20426;-81
2022/07/07 01:36:27;;;;;;;3.30;2.00;;;18.10;56.90;;;;;;7416638;19;20408;-82
2022/07/07 01:38:59;;;;;;;4.40;2.33;;;18.20;57.10;;;;;;7420789;19;20416;-82
2022/07/07 01:41:29;;;;;;;2.63;2.23;;;18.10;57.10;;;;;;7417337;19;20392;-82
2022/07/07 01:43:58;;;;;;;2.23;1.90;;;18.10;57.10;;;;;;7417863;19;20393;-82
2022/07/07 01:46:28;;;;;;;2.20;2.00;;;18.10;57.30;;;;;;7404496;19;20397;-81
2022/07/07 01:48:57;;;;;;;2.70;2.30;;;18.20;57.20;;;;;;7397676;19;20416;-82
2022/07/07 01:51:27;;;;;;;2.77;2.47;;;18.30;57.10;;;;;;7400062;19;20372;-82
2022/07/07 01:53:59;;;;;;;4.13;2.17;;;18.30;56.80;;;;;;7397714;19;21005;-81
2022/07/07 01:56:28;;;;;;;2.10;1.90;;;18.10;57.20;;;;;;7396371;19;20408;-80
2022/07/07 01:58:58;;;;;;;2.67;2.20;;;18.00;57.20;;;;;;7398450;19;20964;-81
2022/07/07 02:01:27;;;;;;;1.93;1.83;;;17.90;57.80;;;;;;7393597;19;20483;-82
2022/07/07 02:03:57;;;;;;;2.00;1.80;;;18.00;57.80;;;;;;7393356;19;20524;-81
2022/07/07 02:06:28;;;;;;;2.70;2.20;;;18.00;57.70;;;;;;7394293;19;20401;-82
2022/07/07 02:09:01;;;;;;;2.73;2.17;;;18.10;57.20;;;;;;7388982;19;20427;-82
2022/07/07 02:11:30;;;;;;;3.83;2.17;;;18.20;57.10;;;;;;7390329;19;20403;-81
2022/07/07 02:14:00;;;;;;;2.30;1.87;;;18.10;57.20;;;;;;7392176;19;20412;-82
2022/07/07 02:16:30;;;;;;;3.83;2.30;;;18.00;57.80;;;;;;7391116;19;20419;-80
2022/07/07 02:19:02;;;;;;;3.53;1.90;;;18.10;58.00;;;;;;7392362;19;20400;-83
2022/07/07 02:21:31;;;;;;;3.47;2.10;;;17.80;57.70;;;;;;7390532;19;20400;-83
2022/07/07 02:24:04;;;;;;;4.47;2.37;;;17.70;58.70;;;;;;7391032;19;21245;-81
2022/07/07 02:26:36;;;;;;;3.00;1.80;;;17.90;58.50;;;;;;7390597;19;20415;-80
2022/07/07 02:29:06;;;;;;;2.33;1.80;;;18.20;58.60;;;;;;7388263;19;20407;-81
2022/07/07 02:31:36;;;;;;;3.97;1.77;;;18.40;58.70;;;;;;7388953;19;20400;-81
2022/07/07 02:34:05;;;;;;;4.70;1.80;;;18.50;58.50;;;;;;7384463;19;20517;-81
2022/07/07 02:36:35;;;;;;;2.77;1.97;;;18.50;58.50;;;;;;7386494;19;20424;-81
2022/07/07 02:39:07;;;;;;;3.00;1.50;;;18.60;58.40;;;;;;7388724;19;20412;-80
2022/07/07 02:41:36;;;;;;;3.50;2.40;;;18.60;58.20;;;;;;7384679;19;21681;-82
2022/07/07 02:44:08;;;;;;;3.97;2.00;;;18.70;58.20;;;;;;7391408;19;20411;-81
2022/07/07 02:46:38;;;;;;;3.50;1.80;;;18.70;57.80;;;;;;7386195;19;20408;-82
2022/07/07 02:49:07;;;;;;;3.23;2.30;;;18.60;57.40;;;;;;7387891;19;20435;-82
2022/07/07 02:51:37;;;;;;;2.73;2.17;;;18.50;57.70;;;;;;7391597;19;20416;-80
2022/07/07 02:54:09;;;;;;;3.37;2.40;;;18.50;57.70;;;;;;7385559;19;21140;-82
2022/07/07 02:56:38;;;;;;;2.10;2.00;;;18.30;58.50;;;;;;7386936;19;20467;-82
2022/07/07 02:59:07;;;;;;;4.73;1.80;;;18.30;58.00;;;;;;7391966;19;20489;-81
2022/07/07 03:01:37;;;;;;;4.80;1.47;;;18.30;57.90;;;;;;7385598;19;20408;-82
2022/07/07 03:04:09;;;;;;;4.03;1.60;;;18.20;57.80;;;;;;7390231;19;20404;-81
2022/07/07 03:06:38;;;;;;;3.17;1.73;;;18.30;57.40;;;;;;7389526;19;20396;-81
2022/07/07 03:09:10;;;;;;;2.40;1.47;;;18.40;57.10;;;;;;7388387;19;20376;-81
2022/07/07 03:11:40;;;;;;;3.83;1.90;;;18.50;56.50;;;;;;7389297;19;20444;-82
2022/07/07 03:14:11;;;;;;;2.37;1.40;;;18.40;56.50;;;;;;7389934;19;20419;-81
2022/07/07 03:16:41;;;;;;;4.20;1.80;;;18.20;57.20;;;;;;7388676;19;20420;-81
2022/07/07 03:19:10;;;;;;;4.53;1.80;;;18.20;57.70;;;;;;7385838;19;20468;-80
2022/07/07 03:21:43;;;;;;;2.97;1.77;;;18.40;56.90;;;;;;7389143;19;20434;-81
2022/07/07 03:24:15;;;;;;;3.23;1.60;;;18.50;56.60;;;;;;7387518;19;20408;-80
2022/07/07 03:26:44;;;;;;;2.67;1.50;;;18.40;56.80;;;;;;7384819;19;20427;-81
2022/07/07 03:29:14;;;;;;;2.33;1.77;;;18.40;56.60;;;;;;7381927;19;20417;-80
2022/07/07 03:31:46;;;;;;;3.43;1.50;;;18.60;57.00;;;;;;7378979;19;21781;-80
2022/07/07 03:34:15;;;;;;;2.20;1.53;;;18.60;57.20;;;;;;7379690;19;20403;-81
2022/07/07 03:36:45;;;;;;;3.17;2.00;;;18.70;57.50;;;;;;7385584;19;20458;-81
2022/07/07 03:39:17;;;;;;;4.10;1.40;;;18.70;57.50;;;;;;7385638;19;20412;-81
2022/07/07 03:41:47;;;;;;;8.93;1.70;;;18.80;56.80;;;;;;7387635;19;21466;-81
2022/07/07 03:44:16;;;;;;;1.87;1.60;;;18.80;56.50;;;;;;7386604;19;20419;-81
2022/07/07 03:46:46;;;;;;;1.83;1.40;;;18.90;56.50;;;;;;7384866;19;20960;-81
2022/07/07 03:49:16;;;;;;;4.40;1.87;;;18.90;56.50;;;;;;7387718;19;20518;-81
2022/07/07 03:51:45;;;;;;;2.63;1.23;;;19.00;56.00;;;;;;7388110;19;20428;-81
2022/07/07 03:54:18;;;;;;;10.00;2.03;;;19.00;55.70;;;;;;7384409;19;20413;-82
2022/07/07 03:56:50;;;;;;;7.30;1.90;;;19.10;55.50;;;;;;7380484;19;20423;-81
2022/07/07 03:59:19;;;;;;;1.97;1.73;;;19.00;55.40;;;;;;7383553;19;20408;-80
2022/07/07 04:01:49;;;;;;;3.07;1.50;;;19.10;55.30;;;;;;7382844;19;21055;-81
2022/07/07 04:04:19;;;;;;;2.40;1.40;;;19.00;55.20;;;;;;7384010;19;20404;-81
2022/07/07 04:06:50;;;;;;;1.20;1.10;;;19.00;55.60;;;;;;7386322;19;20412;-81
2022/07/07 04:09:23;;;;;;;4.20;2.00;;;19.10;55.60;;;;;;7389111;19;20431;-82
2022/07/07 04:11:54;;;;;;;2.30;1.33;;;19.10;55.20;;;;;;7381735;19;20465;-80
2022/07/07 04:14:23;;;;;;;2.80;1.23;;;19.00;55.30;;;;;;7382663;19;20427;-80
2022/07/07 04:16:53;;;;;;;2.37;1.30;;;18.90;55.70;;;;;;7381581;19;21428;-80
2022/07/07 04:19:22;;;;;;;1.90;1.70;;;18.70;56.30;;;;;;7383667;19;20427;-80
2022/07/07 04:21:52;;;;;;;2.27;1.47;;;18.90;56.40;;;;;;7378461;19;20444;-80
2022/07/07 04:24:26;;;;;;;2.50;2.00;;;18.90;56.20;;;;;;7386965;19;21117;-80
2022/07/07 04:26:56;;;;;;;2.57;2.23;;;19.10;55.90;;;;;;7382116;19;20384;-81
2022/07/07 04:29:25;;;;;;;4.17;1.70;;;19.20;55.50;;;;;;7377925;19;20551;-81
2022/07/07 04:31:55;;;;;;;3.40;1.57;;;19.10;55.60;;;;;;7368314;19;20404;-81
2022/07/07 04:34:25;;;;;;;4.20;1.70;;;19.00;55.80;;;;;;7363446;19;20503;-81
2022/07/07 04:36:54;;;;;;;3.83;2.50;;;19.20;55.70;;;;;;7364754;19;20427;-81
2022/07/07 04:39:28;;;;;;;2.87;1.97;;;19.20;55.60;;;;;;7366750;19;20850;-81
2022/07/07 04:42:00;;;;;;;1.70;1.60;;;18.90;55.90;;;;;;7365613;19;20430;-82
2022/07/07 04:44:29;;;;;;;2.73;1.80;;;18.80;56.20;;;;;;7360588;19;20472;-81
2022/07/07 04:47:01;;;;;;;4.70;1.77;;;18.90;55.60;;;;;;7365942;19;20418;-81
2022/07/07 04:49:33;;;;;;;3.43;2.07;;;18.80;56.20;;;;;;7364960;19;20506;-81
2022/07/07 04:52:06;;;;;;;3.40;1.90;;;18.90;56.10;;;;;;7357433;19;20404;-80
2022/07/07 04:54:38;;;;;;;3.03;1.60;;;19.10;55.70;;;;;;7356127;19;21640;-81
2022/07/07 04:57:08;;;;;;;5.30;2.50;;;19.30;55.30;;;;;;7364096;19;21671;-81
2022/07/07 04:59:37;;;;;;;1.47;1.33;;;19.40;54.90;;;;;;7365788;19;22832;-79
2022/07/07 05:02:07;;;;;;;3.30;1.37;;;19.20;55.00;;;;;;7363513;19;20584;-79
2022/07/07 05:04:36;;;;;;;3.27;1.53;;;19.00;55.50;;;;;;7365373;19;20419;-81
2022/07/07 05:07:08;;;;;;;7.70;4.57;;;19.00;55.70;;;;;;7367274;19;20417;-80
2022/07/07 05:09:40;;;;;;;4.53;2.13;;;19.10;55.60;;;;;;7367246;19;21904;-79
2022/07/07 05:12:11;;;;;;;4.70;1.97;;;19.10;55.60;;;;;;7368701;19;20446;-79
2022/07/07 05:14:41;;;;;;;1.67;1.40;;;19.20;55.70;;;;;;7376427;19;20392;-78
2022/07/07 05:17:10;;;;;;;4.73;1.77;;;19.20;55.30;;;;;;7366835;19;20412;-81
2022/07/07 05:19:40;;;;;;;2.03;1.67;;;19.10;55.60;;;;;;7395103;19;20401;-80
2022/07/07 05:22:10;;;;;;;3.60;1.70;;;19.00;55.70;;;;;;7381603;19;20404;-81
2022/07/07 05:24:42;;;;;;;4.57;2.60;;;18.90;55.70;;;;;;7412100;19;20407;-88
2022/07/07 05:27:11;;;;;;;5.17;1.73;;;19.00;56.00;;;;;;7414130;19;20476;-89
2022/07/07 05:29:43;;;;;;;5.57;1.90;;;19.20;55.60;;;;;;7421446;19;20426;-87
2022/07/07 05:32:13;;;;;;;8.33;3.07;;;19.10;55.60;;;;;;7423894;19;20400;-87
2022/07/07 05:34:45;;;;;;;5.70;3.80;;;19.30;55.60;;;;;;7421944;19;20401;-87
2022/07/07 05:37:14;;;;;;;3.43;2.43;;;19.50;56.30;;;;;;7429102;19;20384;-87
2022/07/07 05:39:49;;;;;;;6.53;4.63;;;19.80;55.30;;;;;;7394839;19;20394;-87
2022/07/07 05:42:21;;;;;;;3.20;1.80;;;19.80;55.30;;;;;;7396351;19;20437;-87
2022/07/07 05:44:50;;;;;;;3.70;2.50;;;19.70;54.50;;;;;;7394822;19;20389;-88
2022/07/07 05:47:20;;;;;;;2.80;1.60;;;19.80;55.50;;;;;;7393721;19;20396;-86
2022/07/07 05:49:49;;;;;;;5.20;3.27;;;19.90;54.50;;;;;;7390237;19;20396;-87
2022/07/07 05:52:19;;;;;;;5.77;2.37;;;20.00;55.10;;;;;;7388846;19;20376;-88
2022/07/07 05:54:51;;;;;;;5.00;2.73;;;20.20;54.70;;;;;;7389475;19;20385;-87
2022/07/07 05:57:20;;;;;;;7.60;3.17;;;20.30;54.40;;;;;;7385637;19;20546;-87
2022/07/07 05:59:54;;;;;;;4.33;2.10;;;20.40;54.30;;;;;;7387445;19;20427;-88
2022/07/07 06:02:24;;;;;;;4.70;2.73;;;20.40;53.90;;;;;;7387540;19;20497;-86
2022/07/07 06:04:56;;;;;;;4.03;2.00;;;20.30;54.30;;;;;;7388162;19;20431;-87
2022/07/07 06:07:25;;;;;;;3.07;1.90;;;20.40;54.70;;;;;;7386699;19;20388;-87
2022/07/07 06:09:58;;;;;;;4.17;2.43;;;20.50;54.10;;;;;;7385294;19;21472;-88
2022/07/07 06:12:30;;;;;;;4.87;2.20;;;20.60;53.80;;;;;;7386283;19;20407;-86
2022/07/07 06:15:01;;;;;;;3.73;2.33;;;20.70;53.60;;;;;;7386613;19;21072;-87
2022/07/07 06:17:34;;;;;;;2.00;1.80;;;20.80;53.00;;;;;;7384050;19;20508;-88
2022/07/07 06:20:03;;;;;;;4.47;2.10;;;20.90;53.30;;;;;;7384126;19;20409;-87
2022/07/07 06:22:33;;;;;;;5.43;2.00;;;20.90;52.90;;;;;;7382246;19;20766;-88
2022/07/07 06:25:09;;;;;;;4.03;2.13;;;21.00;52.40;;;;;;7384100;19;20413;-87
2022/07/07 06:27:40;;;;;;;3.67;2.10;;;21.10;52.80;;;;;;7384107;19;20408;-88
2022/07/07 06:30:12;;;;;;;4.93;1.70;;;21.30;52.50;;;;;;7392070;19;20412;-88
2022/07/07 06:32:44;;;;;;;2.07;1.70;;;21.30;51.80;;;;;;7393496;19;20392;-89
2022/07/07 06:35:20;;;;;;;4.23;1.77;;;21.10;51.80;;;;;;7394583;19;20507;-88
2022/07/07 06:37:54;;;;;;;4.43;1.87;;;20.90;52.80;;;;;;7392080;19;20452;-87
2022/07/07 06:40:26;;;;;;;5.27;1.90;;;21.00;52.80;;;;;;7392910;19;20424;-88
2022/07/07 06:42:56;;;;;;;1.83;1.50;;;21.10;52.90;;;;;;7393009;19;20415;-88
2022/07/07 06:45:30;;;;;;;3.10;1.83;;;21.20;52.70;;;;;;7393433;19;20490;-86
2022/07/07 06:48:00;;;;;;;2.33;2.13;;;21.40;52.50;;;;;;7390616;19;20413;-87
2022/07/07 06:50:32;;;;;;;2.37;2.10;;;21.40;52.30;;;;;;7389454;19;20443;-88
2022/07/07 06:53:02;;;;;;;3.37;1.83;;;21.50;52.10;;;;;;7390761;19;20923;-88
2022/07/07 06:55:36;;;;;;;2.50;1.90;;;21.40;52.00;;;;;;7392056;19;20402;-87
2022/07/07 06:58:06;;;;;;;3.13;1.70;;;21.50;52.20;;;;;;7389153;19;20428;-87
2022/07/07 07:00:35;;;;;;;4.33;1.90;;;21.50;52.20;;;;;;7393179;19;20409;-88
2022/07/07 07:03:05;;;;;;;2.40;1.50;;;21.50;51.80;;;;;;7392239;19;20461;-87
2022/07/07 07:05:34;;;;;;;1.90;1.57;;;21.40;52.20;;;;;;7390638;19;20427;-88
2022/07/07 07:08:04;;;;;;;3.43;2.00;;;21.50;52.00;;;;;;7392441;19;20405;-87
2022/07/07 07:10:36;;;;;;;1.93;1.43;;;21.70;51.80;;;;;;7389772;19;20420;-87
2022/07/07 07:13:06;;;;;;;2.53;1.87;;;21.80;51.70;;;;;;7388700;19;20403;-87
2022/07/07 07:15:35;;;;;;;3.70;1.77;;;22.00;51.40;;;;;;7390630;19;21027;-86
2022/07/07 07:18:07;;;;;;;2.57;1.63;;;22.00;51.00;;;;;;7392044;19;20424;-88
2022/07/07 07:20:40;;;;;;;2.73;1.47;;;22.00;51.40;;;;;;7391455;19;20403;-88
2022/07/07 07:23:09;;;;;;;3.20;1.90;;;22.10;51.40;;;;;;7383324;19;20412;-89
2022/07/07 07:25:41;;;;;;;2.80;2.00;;;22.30;51.20;;;;;;7389525;19;20404;-88
2022/07/07 07:28:15;;;;;;;5.77;2.27;;;22.30;50.80;;;;;;7388526;19;20418;-87
2022/07/07 07:30:47;;;;;;;3.10;1.77;;;22.30;51.20;;;;;;7390742;19;20424;-89
2022/07/07 07:33:20;;;;;;;3.20;1.57;;;22.30;51.00;;;;;;7391498;19;20424;-88
2022/07/07 07:35:49;;;;;;;2.37;1.30;;;22.40;51.20;;;;;;7389892;19;20419;-89
2022/07/07 07:38:19;;;;;;;1.93;1.40;;;22.30;51.40;;;;;;7389310;19;20795;-91
2022/07/07 07:40:51;;;;;;;2.83;1.47;;;22.30;51.20;;;;;;7390572;19;20408;-89
2022/07/07 07:43:20;;;;;;;2.63;1.70;;;22.40;50.90;;;;;;7391533;19;20403;-91
2022/07/07 07:45:52;;;;;;;3.30;1.80;;;22.40;51.40;;;;;;7391997;19;20416;-91
2022/07/07 07:48:21;;;;;;;2.37;1.93;;;22.40;51.10;;;;;;7391619;19;20434;-90
2022/07/07 07:50:51;;;;;;;3.50;1.50;;;22.50;53.30;;;;;;7390437;19;20392;-91
2022/07/07 07:53:20;;;;;;;1.67;1.50;;;22.50;51.70;;;;;;7384465;19;20806;-92
2022/07/07 07:55:55;;;;;;;2.70;1.43;;;22.50;51.30;;;;;;7382420;19;20925;-91
2022/07/07 07:58:25;;;;;;;3.10;1.93;;;22.40;51.40;;;;;;7384650;19;21088;-90
2022/07/07 08:00:56;;;;;;;2.57;1.80;;;22.30;51.50;;;;;;7389201;19;20411;-89
2022/07/07 08:03:25;;;;;;;3.17;2.20;;;22.20;52.10;;;;;;7391318;19;20412;-90
2022/07/07 08:05:55;;;;;;;2.03;1.70;;;22.10;52.40;;;;;;7391356;19;20418;-91
2022/07/07 08:08:26;;;;;;;3.20;2.07;;;21.90;52.50;;;;;;7391203;19;20420;-91
2022/07/07 08:11:02;;;;;;;3.33;2.10;;;22.00;52.80;;;;;;7386342;19;20429;-90
2022/07/07 08:13:33;;;;;;;4.00;1.97;;;21.90;52.80;;;;;;7388166;19;20446;-92
2022/07/07 08:16:03;;;;;;;1.97;1.53;;;21.90;52.90;;;;;;7386424;19;20438;-90
2022/07/07 08:18:32;;;;;;;3.37;2.77;;;21.90;53.00;;;;;;7389690;19;20400;-90
2022/07/07 08:21:04;;;;;;;5.17;2.80;;;21.70;53.30;;;;;;7389286;19;20408;-90
2022/07/07 08:23:37;;;;;;;4.20;1.80;;;21.70;53.40;;;;;;7377055;19;20488;-90
2022/07/07 08:26:09;;;;;;;2.70;1.97;;;21.80;53.50;;;;;;7382560;19;20428;-90
2022/07/07 08:28:39;;;;;;;4.17;2.30;;;21.90;53.30;;;;;;7412677;19;21413;-91
2022/07/07 08:31:11;;;;;;;3.50;2.57;;;22.00;53.90;;;;;;7412729;19;20389;-90
2022/07/07 08:33:43;;;;;;;3.00;2.63;;;21.90;53.70;;;;;;7411773;19;20392;-90
2022/07/07 08:36:15;;;;;;;2.80;1.67;;;21.80;53.80;;;;;;7416698;19;20404;-90
2022/07/07 08:38:49;;;;;;;2.40;1.97;;;21.80;54.10;;;;;;7410081;19;20404;-89
2022/07/07 08:41:23;;;;;;;2.33;2.13;;;21.80;53.90;;;;;;7413011;19;20453;-89
2022/07/07 08:43:55;;;;;;;4.07;2.20;;;21.80;54.20;;;;;;7412459;19;20412;-91
2022/07/07 08:46:25;;;;;;;5.10;2.33;;;21.90;54.40;;;;;;7413548;19;20413;-90
2022/07/07 08:48:57;;;;;;;2.50;1.83;;;22.00;54.80;;;;;;7418916;19;20420;-89
2022/07/07 08:51:29;;;;;;;2.30;2.03;;;22.00;53.90;;;;;;7417033;19;20401;-91
2022/07/07 08:54:00;;;;;;;7.90;2.80;;;22.10;54.20;;;;;;7415307;19;20400;-92
2022/07/07 08:56:34;;;;;;;4.10;2.27;;;22.00;55.10;;;;;;7411725;19;20423;-90
2022/07/07 08:59:03;;;;;;;3.40;2.50;;;22.00;54.80;;;;;;7420319;19;20443;-92
2022/07/07 09:01:33;;;;;;;3.30;2.27;;;22.00;55.70;;;;;;7414700;19;20418;-88
2022/07/07 09:04:03;;;;;;;4.60;3.00;;;22.20;54.30;;;;;;7413012;19;20437;-91
2022/07/07 09:06:35;;;;;;;5.00;2.70;;;22.40;55.70;;;;;;7410375;19;20411;-92
2022/07/07 09:09:05;;;;;;;4.73;2.67;;;22.70;54.70;;;;;;7390328;19;20491;-90
2022/07/07 09:11:39;;;;;;;2.40;2.10;;;22.90;53.80;;;;;;7390322;19;20528;-90
2022/07/07 09:14:14;;;;;;;4.17;2.60;;;22.90;53.20;;;;;;7395118;19;20446;-91
2022/07/07 09:16:44;;;;;;;3.50;2.70;;;23.00;53.50;;;;;;7391140;19;20768;-90
2022/07/07 09:19:20;;;;;;;3.67;2.87;;;23.10;55.20;;;;;;7388097;19;20945;-90
2022/07/07 09:21:52;;;;;;;5.03;2.67;;;23.10;53.30;;;;;;7385632;19;20404;-90
2022/07/07 09:24:22;;;;;;;2.50;2.30;;;23.10;53.70;;;;;;7380935;19;20405;-92
2022/07/07 09:26:57;;;;;;;3.40;2.80;;;23.00;54.10;;;;;;7384194;19;21023;-87
2022/07/07 09:29:27;;;;;;;6.10;2.77;;;22.80;54.00;;;;;;7384833;19;20396;-90
2022/07/07 09:32:00;;;;;;;12.30;3.87;;;22.80;55.30;;;;;;7388042;19;20404;-92
2022/07/07 09:34:31;;;;;;;2.97;2.73;;;22.60;56.60;;;;;;7387602;19;20415;-91
2022/07/07 09:39:48;;;;;;;4.50;2.30;;;22.30;57.60;;;;;;7384861;19;20423;-81
2022/07/07 09:42:26;;;;;;;2.10;1.90;;;22.30;57.10;;;;;;7372766;19;20420;-80
2022/07/07 09:45:00;;;;;;;2.83;2.17;;;22.30;58.40;;;;;;7372307;19;20415;-80
2022/07/07 09:47:32;;;;;;;3.03;2.07;;;22.20;58.20;;;;;;7372768;19;20424;-80
2022/07/07 09:50:04;;;;;;;2.30;2.10;;;22.30;58.70;;;;;;7369829;19;20392;-82
2022/07/07 09:52:36;;;;;;;5.80;2.47;;;22.10;58.50;;;;;;7369537;19;20404;-82
2022/07/07 09:55:09;;;;;;;9.20;3.40;;;22.00;59.30;;;;;;7371339;19;20444;-80
2022/07/07 09:57:42;;;;;;;4.40;1.97;;;22.00;59.60;;;;;;7368809;19;20415;-83
2022/07/07 10:00:15;;;;;;;4.70;2.07;;;22.00;60.10;;;;;;7372401;19;20408;-81
2022/07/07 10:02:49;;;;;;;6.07;2.00;;;22.00;60.80;;;;;;7371366;19;20421;-79
2022/07/07 10:05:22;;;;;;;2.57;2.10;;;21.90;58.20;;;;;;7381685;19;20423;-79
2022/07/07 10:07:54;;;;;;;5.20;2.23;;;21.90;59.70;;;;;;7381712;19;20437;-80
2022/07/07 10:10:24;;;;;;;2.10;1.90;;;22.00;59.30;;;;;;7372956;19;20404;-81
2022/07/07 10:12:58;;;;;;;2.70;1.90;;;22.00;58.40;;;;;;7372848;19;20415;-82
2022/07/07 10:15:27;;;;;;;2.30;2.10;;;22.10;59.40;;;;;;7379458;19;20515;-82
2022/07/07 10:17:58;;;;;;;2.30;2.00;;;22.10;58.10;;;;;;7376842;19;20400;-82
2022/07/07 10:20:27;;;;;;;4.00;1.90;;;22.10;59.10;;;;;;7379343;19;20412;-82
2022/07/07 10:22:57;;;;;;;3.37;2.10;;;22.10;59.30;;;;;;7373581;19;20412;-81
2022/07/07 10:25:27;;;;;;;2.93;2.13;;;22.20;59.30;;;;;;7382188;19;20491;-82
2022/07/07 10:28:01;;;;;;;6.57;2.60;;;22.10;59.70;;;;;;7377786;19;20436;-81
2022/07/07 10:30:34;;;;;;;7.63;2.97;;;22.20;59.00;;;;;;7379762;19;20415;-82
2022/07/07 10:33:06;;;;;;;3.53;2.50;;;22.30;59.50;;;;;;7379737;19;20412;-82
2022/07/07 10:35:45;;;;;;;3.67;2.07;;;22.30;59.20;;;;;;7381398;19;20853;-81
2022/07/07 10:38:19;;;;;;;3.07;2.00;;;22.30;58.20;;;;;;7380671;19;20400;-80
2022/07/07 10:40:55;;;;;;;2.53;2.07;;;22.50;58.70;;;;;;7379013;19;20419;-82
2022/07/07 10:43:33;;;;;;;3.27;1.90;;;22.70;58.70;;;;;;7379076;19;20419;-83
2022/07/07 10:46:04;;;;;;;2.63;2.27;;;22.60;56.70;;;;;;7379778;19;20403;-83
2022/07/07 10:48:45;;;;;;;2.33;2.00;;;22.60;56.90;;;;;;7379786;19;20964;-82
2022/07/07 10:51:18;;;;;;;2.60;2.13;;;22.50;57.50;;;;;;7375708;19;20424;-82
2022/07/07 10:54:03;;;;;;;2.47;2.07;;;22.50;57.50;;;;;;7376647;19;20430;-81
2022/07/07 10:57:05;;;;;;;5.83;1.93;;;22.50;57.00;;;;;;7381205;19;20439;-80
2022/07/07 11:00:16;;;;;;;3.90;2.27;;;22.60;58.40;;;;;;7378206;19;20412;-81
2022/07/07 11:02:51;;;;;;;3.00;1.90;;;22.70;58.30;;;;;;7377347;19;20520;-81
2022/07/07 11:05:33;;;;;;;3.17;2.20;;;22.70;57.10;;;;;;7377568;19;20521;-82
2022/07/07 11:08:11;;;;;;;3.60;2.00;;;22.60;57.10;;;;;;7379625;19;20412;-82
2022/07/07 11:10:52;;;;;;;3.93;2.00;;;22.50;58.00;;;;;;7377643;19;20784;-81
2022/07/07 11:13:25;;;;;;;2.60;1.80;;;22.40;57.70;;;;;;7376954;19;20976;-81
2022/07/07 11:16:13;;;;;;;2.53;2.10;;;22.40;58.00;;;;;;7376473;19;20461;-81
2022/07/07 11:18:43;;;;;;;1.97;1.87;;;22.40;59.00;;;;;;7378997;19;20408;-82
2022/07/07 11:21:13;;;;;;;2.17;1.97;;;22.30;58.80;;;;;;7374493;19;20416;-83
2022/07/07 11:23:49;;;;;;;1.70;1.57;;;22.20;59.30;;;;;;7377970;19;20419;-82
2022/07/07 11:26:20;;;;;;;2.10;1.57;;;22.20;58.80;;;;;;7373577;19;20961;-82
2022/07/07 11:28:50;;;;;;;3.37;1.70;;;22.20;59.10;;;;;;7376481;19;20416;-83
2022/07/07 11:31:22;;;;;;;2.03;1.60;;;22.30;58.50;;;;;;7375811;19;20381;-82
2022/07/07 11:33:52;;;;;;;4.90;1.60;;;22.30;59.00;;;;;;7375586;19;20408;-82
2022/07/07 11:36:28;;;;;;;2.33;2.13;;;22.40;58.50;;;;;;7367608;19;22138;-83
2022/07/07 11:39:00;;;;;;;1.87;1.67;;;22.40;58.60;;;;;;7355372;19;20464;-81
2022/07/07 11:41:41;;;;;;;3.03;1.73;;;22.50;58.80;;;;;;7355231;19;20408;-83
2022/07/07 11:44:21;;;;;;;3.90;1.60;;;22.60;59.10;;;;;;7365351;19;20429;-84
2022/07/07 11:46:54;;;;;;;3.00;2.40;;;22.50;58.10;;;;;;7355528;19;20396;-82
2022/07/07 11:49:23;;;;;;;2.50;2.00;;;22.60;58.70;;;;;;7376938;19;20404;-79
2022/07/07 11:51:54;;;;;;;3.30;1.70;;;22.40;58.90;;;;;;7356596;19;21174;-81
2022/07/07 11:54:24;;;;;;;2.00;1.77;;;22.20;59.00;;;;;;7362888;19;20744;-80
2022/07/07 11:56:53;;;;;;;8.03;2.93;;;22.00;59.50;;;;;;7368945;19;20408;-81
2022/07/07 11:59:24;;;;;;;3.33;2.40;;;21.90;59.60;;;;;;7370115;19;20504;-81
2022/07/07 12:01:56;;;;;;;3.97;2.30;;;21.80;59.40;;;;;;7360750;19;20405;-81
2022/07/07 12:04:26;;;;;;;2.07;1.87;;;21.90;59.30;;;;;;7369671;19;21453;-81
2022/07/07 12:06:55;;;;;;;2.63;2.17;;;22.00;59.40;;;;;;7371390;19;20516;-85
2022/07/07 12:09:25;;;;;;;3.70;2.47;;;22.10;59.40;;;;;;7377930;19;20524;-84
2022/07/07 12:11:56;;;;;;;3.73;2.67;;;22.20;59.20;;;;;;7386564;19;20834;-87
2022/07/07 12:14:28;;;;;;;8.70;4.27;;;22.30;58.80;;;;;;7407956;19;20444;-87
2022/07/07 12:17:00;;;;;;;5.93;2.93;;;22.40;58.50;;;;;;7411211;19;20400;-87
2022/07/07 12:19:30;;;;;;;4.23;2.33;;;22.40;58.30;;;;;;7424461;19;20400;-87
2022/07/07 12:21:59;;;;;;;4.93;2.30;;;22.50;58.60;;;;;;7427865;19;20497;-87
2022/07/07 12:24:30;;;;;;;10.33;3.20;;;22.50;58.40;;;;;;7426745;19;20472;-88
2022/07/07 12:26:59;;;;;;;7.57;3.17;;;22.40;58.30;;;;;;7427135;19;20487;-87
2022/07/07 12:29:29;;;;;;;8.03;3.00;;;22.40;58.60;;;;;;7426413;19;20437;-87
2022/07/07 12:32:01;;;;;;;4.73;3.10;;;22.50;58.40;;;;;;7427331;19;20408;-89
2022/07/07 12:34:45;;;;;;;2.43;2.23;;;22.50;58.30;;;;;;7431097;19;20425;-87
2022/07/07 12:37:17;;;;;;;2.93;1.90;;;22.50;58.30;;;;;;7430630;19;20400;-88
2022/07/07 12:39:52;;;;;;;3.13;2.00;;;22.50;58.40;;;;;;7429413;19;20404;-89
2022/07/07 12:42:28;;;;;;;7.87;3.33;;;22.50;58.10;;;;;;7408011;19;20415;-86
2022/07/07 12:45:11;;;;;;;2.43;2.00;;;22.50;58.30;;;;;;7396097;19;20416;-86
2022/07/07 12:47:50;;;;;;;5.63;2.17;;;22.30;58.70;;;;;;7398413;19;20404;-85
2022/07/07 12:50:24;;;;;;;3.50;2.57;;;22.40;58.80;;;;;;7400684;19;20408;-86
2022/07/07 12:53:07;;;;;;;8.63;3.47;;;22.40;59.20;;;;;;7401355;19;20412;-87
2022/07/07 12:55:38;;;;;;;4.60;2.67;;;22.40;59.20;;;;;;7400925;19;20412;-88
2022/07/07 12:58:24;;;;;;;3.30;2.90;;;22.40;59.40;;;;;;7398264;19;20587;-86
2022/07/07 13:01:02;;;;;;;2.63;2.10;;;22.50;59.80;;;;;;7396428;19;20472;-86
2022/07/07 13:03:35;;;;;;;3.47;2.23;;;22.50;60.70;;;;;;7398340;19;20430;-86
2022/07/07 13:06:06;;;;;;;2.73;1.90;;;22.30;59.70;;;;;;7397575;19;20400;-85
2022/07/07 13:08:38;;;;;;;3.63;2.83;;;22.30;59.80;;;;;;7393659;19;20416;-85
2022/07/07 13:11:10;;;;;;;3.83;2.30;;;22.40;60.00;;;;;;7395273;19;22021;-85
2022/07/07 13:13:42;;;;;;;2.73;1.90;;;22.40;59.10;;;;;;7390137;19;20415;-86
2022/07/07 13:16:12;;;;;;;5.07;2.57;;;22.40;59.30;;;;;;7383068;19;20735;-86
2022/07/07 13:18:44;;;;;;;2.40;2.17;;;22.50;58.90;;;;;;7356573;19;20459;-87
2022/07/07 13:21:17;;;;;;;4.50;2.23;;;22.60;58.80;;;;;;7379132;19;20979;-81
2022/07/07 13:23:46;;;;;;;3.50;2.17;;;22.70;58.40;;;;;;7356305;19;20404;-81
2022/07/07 13:26:15;;;;;;;3.00;1.60;;;22.70;58.40;;;;;;7372067;19;20504;-80
2022/07/07 13:28:46;;;;;;;3.23;2.20;;;22.80;58.50;;;;;;7373922;19;20759;-81
2022/07/07 13:31:18;;;;;;;2.60;2.37;;;22.80;58.40;;;;;;7376219;19;20412;-81
2022/07/07 13:33:50;;;;;;;2.70;2.00;;;22.70;58.50;;;;;;7373193;19;20406;-81
2022/07/07 13:36:19;;;;;;;3.90;2.23;;;22.70;58.80;;;;;;7375599;19;20396;-79